Alpha, Minnesota
Current Conditions -  °F | °C
As of 3:34 AM on Thursday 23 Oct 2014 (Local Time) from KMJQ Reporting Station
Overcast Overcast  
Wind Chill: 14°   Ceiling: 500
Heat Index: 14°   Visibility: 10mi
Dew Point: 13°   Wind: 6mph
Humidity: 94%   Direction: 270°W
Pressure: 30.01"   Gusts: NA
Location:  43.64°N, 94.87°W
Report Text: KMJQ 230834Z AUTO 27005KT 10SM OVC005 14/13 A3001 RMK AO2
Loading
Personal Weather Stations






























Interactive Weather Map
Tropical Storm Tracking
New forecast layout! Learn more

10-Day Weather Forecast

Advertisements
Track Severe Weather on mobile